createdAt,value
2018-04-12T14:30:27.702Z,99207
2018-04-12T14:32:56.105Z,99208
2018-04-12T14:35:24.322Z,99207
2018-04-12T14:37:52.991Z,99220
2018-04-12T14:40:25.884Z,99199
2018-04-12T14:45:38.718Z,99194
2018-04-12T14:48:07.421Z,99188
2018-04-12T14:50:39.115Z,99194
2018-04-12T14:53:09.767Z,99189
2018-04-12T14:55:40.984Z,99200
2018-04-12T14:58:09.425Z,99205
2018-04-12T15:00:38.886Z,99204
2018-04-12T15:03:09.224Z,99204
2018-04-12T15:05:41.149Z,99214
2018-04-12T15:08:18.083Z,99209
2018-04-12T15:10:49.645Z,99213
2018-04-12T15:13:27.811Z,99222
2018-04-12T15:16:00.496Z,99224
2018-04-12T15:18:38.992Z,99217
2018-04-12T15:21:10.161Z,99218
2018-04-12T15:23:48.833Z,99221
2018-04-12T15:29:47.480Z,99224
2018-04-12T15:32:33.055Z,99232
2018-04-12T15:35:03.287Z,99220
2018-04-12T15:37:35.353Z,99217
2018-04-12T15:40:10.375Z,99216
2018-04-12T15:42:48.576Z,99205
2018-04-12T15:45:40.035Z,99214
2018-04-12T15:51:26.902Z,99220
2018-04-12T15:57:13.635Z,99212
2018-04-12T16:46:12.405Z,99220
2018-04-12T16:48:44.866Z,99233
2018-04-12T17:00:21.937Z,99250
2018-04-12T17:06:10.886Z,99252
2018-04-12T17:14:28.774Z,99265
2018-04-12T17:23:41.980Z,99264
2018-04-12T17:26:13.421Z,99267
2018-04-12T17:28:41.861Z,99275
2018-04-12T17:31:10.883Z,99268
2018-04-12T17:33:39.012Z,99267
2018-04-12T17:36:07.172Z,99268
2018-04-12T17:38:37.121Z,99271
2018-04-12T17:41:05.250Z,99278
2018-04-12T17:43:34.406Z,99276
2018-04-12T17:46:03.095Z,99283
2018-04-12T17:48:32.569Z,99281
2018-04-12T17:51:00.741Z,99284
2018-04-12T17:53:33.256Z,99282
2018-04-12T17:56:01.908Z,99279
2018-04-12T17:58:30.244Z,99285
2018-04-12T18:01:02.286Z,99289
2018-04-12T18:03:31.718Z,99290
2018-04-12T18:06:01.330Z,99292
2018-04-12T18:08:29.506Z,99300
2018-04-12T18:10:57.630Z,99308
2018-04-12T18:13:25.758Z,99310
2018-04-12T18:15:53.863Z,99313
2018-04-12T18:18:23.387Z,99327
2018-04-12T18:20:51.485Z,99335
2018-04-12T18:23:20.370Z,99342
2018-04-12T18:25:49.218Z,99340
2018-04-12T18:28:17.301Z,99342
2018-04-12T18:30:45.448Z,99344
2018-04-12T18:33:13.568Z,99343
2018-04-12T18:35:41.704Z,99356
2018-04-12T18:38:09.805Z,99365
2018-04-12T18:40:37.889Z,99374
2018-04-12T18:43:06.054Z,99375
2018-04-12T18:45:34.354Z,99379
2018-04-12T18:48:03.235Z,99389
2018-04-12T18:50:32.102Z,99393
2018-04-12T18:53:00.182Z,99394
2018-04-12T18:55:28.519Z,99386
2018-04-12T18:57:56.749Z,99387
2018-04-12T19:00:25.613Z,99394
2018-04-12T19:02:53.713Z,99401
2018-04-12T19:05:22.570Z,99398
2018-04-12T19:07:51.740Z,99393
2018-04-12T19:10:20.523Z,99398
2018-04-12T19:12:48.657Z,99410
2018-04-12T19:15:16.741Z,99406
2018-04-12T19:17:45.605Z,99412
2018-04-12T19:20:13.976Z,99418
2018-04-12T19:22:42.020Z,99408
2018-04-12T19:25:12.249Z,99430
2018-04-12T19:27:40.334Z,99426
2018-04-12T19:30:08.444Z,99432
2018-04-12T19:32:36.608Z,99430
2018-04-12T19:35:04.764Z,99432
2018-04-12T19:37:32.861Z,99433
2018-04-12T19:40:01.747Z,99424
2018-04-12T19:42:29.879Z,99437
2018-04-12T19:44:58.772Z,99436
2018-04-12T19:47:26.852Z,99443
2018-04-12T19:49:54.959Z,99443
2018-04-12T19:52:23.061Z,99450
2018-04-12T19:54:51.163Z,99450
2018-04-12T19:57:19.262Z,99456
2018-04-12T19:59:47.394Z,99455
2018-04-12T20:02:16.268Z,99457
2018-04-12T20:04:44.361Z,99444
2018-04-12T20:07:12.467Z,99462
2018-04-12T20:09:40.556Z,99461
2018-04-12T20:12:08.871Z,99459
2018-04-12T20:14:37.017Z,99464
2018-04-12T20:17:05.942Z,99468
2018-04-12T20:19:34.051Z,99465
2018-04-12T20:22:03.044Z,99463
2018-04-12T20:24:31.192Z,99465
2018-04-12T20:26:59.284Z,99475
2018-04-12T20:29:28.036Z,99466
2018-04-12T20:31:57.132Z,99464
2018-04-12T20:34:25.893Z,99465
2018-04-12T20:36:54.610Z,99458
2018-04-12T20:39:23.502Z,99463
2018-04-12T20:41:54.260Z,99456
2018-04-12T20:44:23.639Z,99466
2018-04-12T20:46:52.721Z,99455
2018-04-12T20:49:23.230Z,99464
2018-04-12T20:51:52.181Z,99466
2018-04-12T20:56:56.345Z,99473
2018-04-12T20:59:25.089Z,99466
2018-04-12T21:01:53.671Z,99476
2018-04-12T21:04:23.318Z,99468
2018-04-12T21:06:55.484Z,99467
2018-04-12T21:09:23.642Z,99475
2018-04-12T21:11:51.716Z,99475
2018-04-12T21:14:19.876Z,99471
2018-04-12T21:16:49.050Z,99467
2018-04-12T21:19:17.133Z,99480
2018-04-12T21:21:47.335Z,99475
2018-04-12T21:24:15.430Z,99469
2018-04-12T21:26:43.538Z,99474
2018-04-12T21:29:11.636Z,99466
2018-04-12T21:31:40.501Z,99464
2018-04-12T21:34:08.597Z,99457
2018-04-12T21:36:36.683Z,99461
2018-04-12T21:39:04.797Z,99457
2018-04-12T21:41:32.908Z,99463
2018-04-12T21:44:01.042Z,99470
2018-04-12T21:46:29.121Z,99478
2018-04-12T21:48:57.220Z,99480
2018-04-12T21:51:25.388Z,99479
2018-04-12T21:53:54.248Z,99478
2018-04-12T21:56:23.278Z,99478
2018-04-12T21:58:52.245Z,99488
2018-04-12T22:01:21.133Z,99486
2018-04-12T22:03:49.253Z,99495
2018-04-12T22:06:18.109Z,99494
2018-04-12T22:08:46.233Z,99499
2018-04-12T22:11:14.341Z,99507
2018-04-12T22:13:42.434Z,99507
2018-04-12T22:16:10.530Z,99516
2018-04-12T22:18:38.678Z,99516
2018-04-12T22:21:06.785Z,99520
2018-04-12T22:23:35.660Z,99523
2018-04-12T22:26:03.820Z,99530
2018-04-12T22:28:31.902Z,99528
2018-04-12T22:31:02.110Z,99528
2018-04-12T22:33:30.461Z,99529
2018-04-12T22:35:58.565Z,99523
2018-04-12T22:38:28.013Z,99538
2018-04-12T22:40:56.241Z,99543
2018-04-12T22:43:24.337Z,99542
2018-04-12T22:45:53.229Z,99541
2018-04-12T22:48:21.329Z,99543
2018-04-12T22:50:49.463Z,99546
2018-04-12T22:53:17.592Z,99546
2018-04-12T22:55:45.764Z,99551
2018-04-12T22:58:13.866Z,99552
2018-04-12T23:00:42.753Z,99547
2018-04-12T23:03:10.842Z,99561
2018-04-12T23:05:38.929Z,99543
2018-04-12T23:08:07.028Z,99548
2018-04-12T23:10:35.186Z,99548
2018-04-12T23:13:03.378Z,99539
2018-04-12T23:15:31.462Z,99542
2018-04-12T23:18:00.574Z,99547
2018-04-12T23:20:28.763Z,99550
2018-04-12T23:22:56.885Z,99548
2018-04-12T23:25:24.985Z,99555
2018-04-12T23:27:53.106Z,99550
2018-04-12T23:30:21.206Z,99548
2018-04-12T23:32:49.315Z,99553
2018-04-12T23:35:17.438Z,99553
2018-04-12T23:37:45.514Z,99551
2018-04-12T23:40:13.590Z,99555
2018-04-12T23:42:41.685Z,99555
2018-04-12T23:45:10.780Z,99555
2018-04-12T23:47:39.137Z,99562
2018-04-12T23:50:07.598Z,99564
2018-04-12T23:52:36.470Z,99566
2018-04-12T23:55:04.608Z,99565
2018-04-12T23:57:32.870Z,99570
